createdAt,value
2018-12-17T00:00:09.366Z,33.70
2018-12-17T00:01:09.468Z,32.60
2018-12-17T00:02:09.671Z,32.40
2018-12-17T00:03:09.865Z,33.80
2018-12-17T00:04:10.042Z,36.70
2018-12-17T00:05:10.225Z,31.80
2018-12-17T00:06:10.424Z,35.30
2018-12-17T00:07:10.659Z,34.70
2018-12-17T00:08:10.832Z,32.90
2018-12-17T00:09:10.883Z,35.30
2018-12-17T00:10:11.074Z,35.00
2018-12-17T00:11:11.253Z,33.60
2018-12-17T00:12:16.547Z,33.30
2018-12-17T00:13:11.545Z,31.80
2018-12-17T00:14:11.733Z,32.30
2018-12-17T00:15:11.930Z,32.90
2018-12-17T00:16:12.186Z,35.20
2018-12-17T00:17:12.242Z,34.60
2018-12-17T00:18:12.449Z,35.00
2018-12-17T00:19:12.626Z,34.10
2018-12-17T00:20:12.823Z,33.40
2018-12-17T00:21:13.018Z,30.90
2018-12-17T00:22:13.242Z,33.20
2018-12-17T00:23:13.336Z,35.50
2018-12-17T00:24:13.392Z,35.30
2018-12-17T00:25:13.489Z,31.10
2018-12-17T00:26:13.713Z,33.10
2018-12-17T00:27:13.902Z,33.20
2018-12-17T00:28:14.078Z,35.60
2018-12-17T00:29:14.279Z,33.50
2018-12-17T00:30:14.493Z,35.70
2018-12-17T00:31:14.574Z,34.10
2018-12-17T00:32:14.771Z,33.90
2018-12-17T00:33:14.962Z,34.10
2018-12-17T00:34:15.141Z,35.10
2018-12-17T00:35:15.400Z,33.50
2018-12-17T00:36:15.467Z,35.90
2018-12-17T00:37:15.651Z,35.70
2018-12-17T00:38:15.854Z,33.70
2018-12-17T00:39:16.032Z,34.20
2018-12-17T00:40:16.229Z,32.10
2018-12-17T00:41:16.318Z,34.80
2018-12-17T00:42:16.520Z,35.20
2018-12-17T00:43:16.735Z,35.20
2018-12-17T00:44:16.934Z,34.50
2018-12-17T00:45:17.222Z,34.00
2018-12-17T00:46:17.278Z,33.70
2018-12-17T00:47:17.478Z,36.40
2018-12-17T00:48:17.730Z,34.70
2018-12-17T00:49:17.811Z,33.10
2018-12-17T00:50:17.991Z,33.00
2018-12-17T00:51:18.205Z,37.80
2018-12-17T00:52:18.390Z,35.20
2018-12-17T00:53:18.573Z,34.10
2018-12-17T00:54:18.742Z,33.10
2018-12-17T00:55:18.921Z,37.50
2018-12-17T00:56:19.116Z,34.50
2018-12-17T00:57:19.295Z,33.50
2018-12-17T00:58:19.500Z,35.40
2018-12-17T00:59:19.673Z,37.80
2018-12-17T01:00:19.878Z,34.80
2018-12-17T01:01:20.110Z,35.60
2018-12-17T01:02:20.174Z,36.10
2018-12-17T01:03:20.446Z,33.70
2018-12-17T01:04:20.551Z,36.30
2018-12-17T01:05:20.633Z,36.00
2018-12-17T01:06:20.825Z,34.70
2018-12-17T01:07:21.028Z,30.90
2018-12-17T01:08:21.227Z,36.30
2018-12-17T01:09:21.476Z,33.90
2018-12-17T01:10:21.581Z,35.40
2018-12-17T01:11:21.644Z,37.50
2018-12-17T01:12:21.839Z,33.00
2018-12-17T01:13:22.068Z,35.30
2018-12-17T01:14:22.138Z,37.20
2018-12-17T01:15:22.319Z,35.20
2018-12-17T01:16:22.551Z,35.20
2018-12-17T01:17:22.614Z,36.90
2018-12-17T01:18:22.750Z,33.80
2018-12-17T01:19:22.974Z,34.40
2018-12-17T01:20:23.040Z,32.50
2018-12-17T01:21:23.257Z,36.70
2018-12-17T01:22:23.449Z,34.20
2018-12-17T01:23:23.679Z,34.60
2018-12-17T01:24:23.921Z,39.20
2018-12-17T01:25:23.995Z,34.50
2018-12-17T01:26:24.203Z,35.10
2018-12-17T01:27:24.379Z,33.90
2018-12-17T01:28:24.573Z,36.90
2018-12-17T01:29:24.803Z,33.30
2018-12-17T01:30:24.877Z,35.30
2018-12-17T01:31:29.520Z,36.40
2018-12-17T01:32:29.425Z,36.10
2018-12-17T01:33:25.518Z,32.50
2018-12-17T01:34:25.569Z,35.60
2018-12-17T01:35:25.774Z,37.00
2018-12-17T01:36:25.953Z,36.00
2018-12-17T01:37:26.215Z,35.20
2018-12-17T01:38:26.306Z,36.60
2018-12-17T01:39:26.404Z,33.90
2018-12-17T01:40:26.497Z,37.00
2018-12-17T01:41:26.709Z,32.20
2018-12-17T01:42:26.988Z,33.20
2018-12-17T01:43:27.069Z,37.20
2018-12-17T01:44:27.265Z,34.80
2018-12-17T01:45:27.459Z,32.60
2018-12-17T01:46:27.660Z,35.80
2018-12-17T01:47:27.868Z,34.50
2018-12-17T01:48:28.068Z,34.00
2018-12-17T01:49:28.200Z,33.20
2018-12-17T01:50:28.278Z,36.70
2018-12-17T01:51:28.554Z,32.00
2018-12-17T01:52:28.612Z,32.90
2018-12-17T01:53:28.787Z,33.30
2018-12-17T01:54:28.999Z,38.20
2018-12-17T01:55:29.181Z,32.80
2018-12-17T01:56:29.404Z,33.70
2018-12-17T01:57:29.473Z,35.20
2018-12-17T01:58:29.843Z,35.90
2018-12-17T01:59:29.794Z,35.40
2018-12-17T02:00:29.889Z,36.90
2018-12-17T02:01:30.068Z,35.60
2018-12-17T02:02:30.318Z,35.00
2018-12-17T02:03:30.371Z,36.50
2018-12-17T02:04:30.567Z,35.00
2018-12-17T02:05:30.886Z,33.30
2018-12-17T02:06:30.944Z,36.90
2018-12-17T02:07:31.145Z,36.80
2018-12-17T02:08:31.341Z,33.10
2018-12-17T02:09:31.454Z,35.30
2018-12-17T02:10:31.765Z,34.50
2018-12-17T02:11:31.855Z,36.10
2018-12-17T02:12:31.932Z,36.00
2018-12-17T02:13:32.110Z,33.50
2018-12-17T02:14:32.304Z,35.20
2018-12-17T02:15:32.608Z,34.30
2018-12-17T02:16:32.697Z,32.70
2018-12-17T02:17:32.899Z,33.80
2018-12-17T02:18:33.084Z,35.90
2018-12-17T02:19:33.293Z,34.40
2018-12-17T02:20:33.515Z,34.40
2018-12-17T02:21:33.597Z,32.60
2018-12-17T02:22:33.843Z,35.40
2018-12-17T02:23:33.926Z,37.00
2018-12-17T02:24:34.132Z,40.70
2018-12-17T02:25:34.323Z,35.90
2018-12-17T02:26:34.555Z,33.60
2018-12-17T02:27:34.641Z,36.30
2018-12-17T02:28:36.293Z,34.00
2018-12-17T02:29:34.886Z,34.50
2018-12-17T02:30:35.090Z,36.40
2018-12-17T02:31:35.282Z,33.70
2018-12-17T02:32:35.483Z,34.70
2018-12-17T02:33:35.674Z,34.90
2018-12-17T02:34:35.851Z,32.70
2018-12-17T02:35:36.033Z,33.50
2018-12-17T02:36:36.256Z,33.80
2018-12-17T02:37:36.449Z,36.20
2018-12-17T02:38:36.632Z,31.50
2018-12-17T02:39:36.876Z,35.10
2018-12-17T02:40:36.955Z,34.80
2018-12-17T02:41:37.168Z,31.60
2018-12-17T02:42:37.350Z,34.80
2018-12-17T02:43:37.565Z,32.50
2018-12-17T02:44:37.741Z,35.90
2018-12-17T02:45:37.925Z,32.60
2018-12-17T02:46:38.129Z,35.70
2018-12-17T02:47:38.310Z,35.80
2018-12-17T02:48:38.524Z,35.60
2018-12-17T02:49:38.764Z,34.00
2018-12-17T02:50:38.821Z,35.30
2018-12-17T02:51:39.043Z,36.00
2018-12-17T02:52:39.239Z,34.70
2018-12-17T02:53:39.450Z,33.20
2018-12-17T02:54:39.641Z,35.50
2018-12-17T02:55:39.959Z,33.40
2018-12-17T02:56:40.011Z,35.50
2018-12-17T02:57:40.197Z,34.80
2018-12-17T02:58:44.014Z,33.20
2018-12-17T02:59:40.623Z,34.00
2018-12-17T03:00:40.681Z,32.60
2018-12-17T03:01:40.910Z,37.20
2018-12-17T03:02:41.016Z,34.60
2018-12-17T03:03:41.210Z,32.50
2018-12-17T03:04:41.423Z,34.10
2018-12-17T03:05:41.632Z,36.80
2018-12-17T03:06:41.846Z,33.80
2018-12-17T03:07:42.028Z,35.80
2018-12-17T03:08:42.243Z,35.00
2018-12-17T03:09:42.444Z,34.20
2018-12-17T03:10:42.636Z,33.80
2018-12-17T03:11:42.847Z,33.40
2018-12-17T03:12:43.042Z,32.30
2018-12-17T03:13:43.225Z,34.90
2018-12-17T03:14:43.453Z,32.00
2018-12-17T03:15:43.537Z,34.80
2018-12-17T03:16:43.649Z,34.40
2018-12-17T03:17:43.717Z,34.30
2018-12-17T03:18:43.908Z,33.70
2018-12-17T03:19:44.101Z,36.30
2018-12-17T03:20:44.285Z,33.80
2018-12-17T03:21:44.482Z,34.50
2018-12-17T03:22:44.705Z,33.20
2018-12-17T03:23:44.774Z,31.70
2018-12-17T03:24:44.986Z,35.50
2018-12-17T03:25:45.170Z,35.90
2018-12-17T03:26:45.378Z,33.50
2018-12-17T03:27:45.527Z,32.60
2018-12-17T03:28:51.512Z,31.40
2018-12-17T03:29:45.801Z,34.60
2018-12-17T03:30:45.988Z,35.90
2018-12-17T03:31:46.199Z,34.20
2018-12-17T03:32:46.387Z,32.30
2018-12-17T03:33:46.669Z,34.80
2018-12-17T03:34:46.738Z,32.30
2018-12-17T03:35:46.949Z,34.80
2018-12-17T03:36:47.256Z,34.40
2018-12-17T03:37:47.314Z,35.50
2018-12-17T03:38:47.426Z,36.10
2018-12-17T03:39:47.668Z,37.30
2018-12-17T03:40:47.834Z,36.30
2018-12-17T03:41:47.893Z,36.70
2018-12-17T03:42:48.081Z,35.60
2018-12-17T03:43:48.321Z,33.90
2018-12-17T03:44:48.389Z,37.30
2018-12-17T03:45:48.593Z,34.70
2018-12-17T03:46:48.786Z,32.20
2018-12-17T03:47:48.965Z,32.30
2018-12-17T03:48:49.188Z,34.50
2018-12-17T03:49:49.415Z,33.40
2018-12-17T03:50:49.490Z,35.10
2018-12-17T03:51:49.628Z,31.70
2018-12-17T03:52:49.833Z,33.50
2018-12-17T03:53:49.969Z,32.40
2018-12-17T03:54:50.233Z,31.70
2018-12-17T03:55:50.365Z,31.30
2018-12-17T03:56:50.444Z,31.40
2018-12-17T03:57:50.637Z,32.50
2018-12-17T03:58:50.916Z,32.10
2018-12-17T03:59:50.987Z,31.70
2018-12-17T04:00:51.192Z,33.10
2018-12-17T04:01:51.403Z,30.90
2018-12-17T04:02:51.615Z,31.30
2018-12-17T04:03:51.806Z,32.30
2018-12-17T04:04:52.029Z,31.10
2018-12-17T04:05:52.147Z,33.60
2018-12-17T04:06:52.251Z,31.00
2018-12-17T04:07:52.430Z,33.20
2018-12-17T04:08:52.611Z,31.00
2018-12-17T04:09:52.797Z,31.30
2018-12-17T04:10:53.008Z,31.40
2018-12-17T04:11:53.109Z,31.20
2018-12-17T04:12:53.175Z,33.30
2018-12-17T04:13:53.398Z,32.10
2018-12-17T04:14:53.590Z,29.70
2018-12-17T04:15:53.796Z,31.00
2018-12-17T04:16:54.014Z,33.60
2018-12-17T04:17:54.201Z,34.50
2018-12-17T04:18:54.316Z,32.40
2018-12-17T04:19:54.526Z,33.70
2018-12-17T04:20:54.719Z,35.90
2018-12-17T04:21:54.919Z,33.70
2018-12-17T04:22:55.113Z,36.60
2018-12-17T04:23:55.337Z,34.10
2018-12-17T04:24:55.459Z,36.70
2018-12-17T04:25:55.747Z,34.10
2018-12-17T04:26:55.767Z,32.00
2018-12-17T04:27:55.928Z,33.10
2018-12-17T04:28:55.996Z,33.50
2018-12-17T04:29:56.204Z,34.70
2018-12-17T04:30:56.438Z,29.10
2018-12-17T04:31:56.522Z,31.30
2018-12-17T04:32:56.773Z,31.40
2018-12-17T04:33:56.907Z,31.60
2018-12-17T04:34:57.042Z,31.90
2018-12-17T04:35:57.111Z,31.80
2018-12-17T04:36:57.305Z,31.60
2018-12-17T04:37:57.507Z,31.10
2018-12-17T04:38:57.705Z,32.60
2018-12-17T04:39:57.800Z,36.30
2018-12-17T04:40:58.007Z,31.90
2018-12-17T04:41:58.153Z,32.10
2018-12-17T04:42:58.226Z,30.90
2018-12-17T04:43:58.517Z,31.10
2018-12-17T04:44:58.601Z,31.40
2018-12-17T04:45:58.866Z,30.70
2018-12-17T04:46:58.934Z,29.60
2018-12-17T04:47:59.126Z,34.50
2018-12-17T04:48:59.352Z,34.00
2018-12-17T04:49:59.433Z,33.20
2018-12-17T04:50:59.631Z,31.50
2018-12-17T04:51:59.824Z,31.80
2018-12-17T04:53:00.038Z,30.90
2018-12-17T04:54:00.212Z,36.30
2018-12-17T04:55:00.418Z,33.20
2018-12-17T04:56:00.648Z,31.70
2018-12-17T04:57:00.735Z,32.20
2018-12-17T04:58:00.934Z,31.30
2018-12-17T04:59:01.155Z,32.00
2018-12-17T05:00:01.397Z,32.00
2018-12-17T05:01:01.492Z,30.70
2018-12-17T05:02:01.690Z,32.20
2018-12-17T05:03:01.833Z,31.40
2018-12-17T05:04:01.924Z,31.40
2018-12-17T05:05:02.133Z,31.10
2018-12-17T05:06:02.312Z,29.60
2018-12-17T05:07:02.519Z,29.80
2018-12-17T05:08:02.727Z,31.40
2018-12-17T05:09:02.963Z,30.60
2018-12-17T05:10:03.045Z,28.80
2018-12-17T05:11:03.252Z,27.40
2018-12-17T05:12:03.460Z,31.30
2018-12-17T05:13:03.628Z,29.60
2018-12-17T05:14:03.800Z,32.90
2018-12-17T05:15:04.071Z,31.70
2018-12-17T05:16:04.122Z,30.80
2018-12-17T05:17:04.317Z,33.20
2018-12-17T05:18:04.513Z,33.90
2018-12-17T05:19:04.704Z,32.30
2018-12-17T05:20:04.905Z,31.20
2018-12-17T05:21:05.083Z,31.00
2018-12-17T05:22:05.263Z,31.90
2018-12-17T05:23:05.458Z,30.30
2018-12-17T05:24:05.631Z,29.30
2018-12-17T05:25:05.831Z,28.30
2018-12-17T05:26:06.018Z,30.40
2018-12-17T05:27:06.267Z,30.30
2018-12-17T05:28:06.366Z,31.80
2018-12-17T05:29:06.458Z,29.10
2018-12-17T05:30:06.626Z,29.10
2018-12-17T05:31:06.810Z,30.20
2018-12-17T05:32:07.009Z,31.00
2018-12-17T05:33:07.224Z,31.00
2018-12-17T05:34:07.324Z,30.60
2018-12-17T05:35:07.521Z,31.90
2018-12-17T05:36:07.701Z,30.20
2018-12-17T05:37:07.912Z,33.20
2018-12-17T05:38:08.100Z,29.90
2018-12-17T05:39:08.291Z,32.20
2018-12-17T05:40:08.465Z,32.50
2018-12-17T05:41:08.693Z,31.20
2018-12-17T05:42:08.896Z,31.50
2018-12-17T05:43:09.001Z,32.60
2018-12-17T05:44:09.187Z,32.80
2018-12-17T05:45:09.440Z,32.40
2018-12-17T05:46:09.520Z,31.30
2018-12-17T05:47:09.753Z,32.20
2018-12-17T05:48:09.930Z,30.80
2018-12-17T05:49:10.149Z,34.50
2018-12-17T05:50:10.351Z,32.40
2018-12-17T05:51:10.531Z,30.30
2018-12-17T05:52:10.741Z,34.50
2018-12-17T05:53:10.947Z,32.80
2018-12-17T05:54:11.135Z,33.30
2018-12-17T05:55:11.329Z,33.30
2018-12-17T05:56:11.557Z,30.30
2018-12-17T05:57:13.598Z,34.50
2018-12-17T05:58:13.699Z,31.60
2018-12-17T05:59:17.103Z,30.10
2018-12-17T06:00:13.390Z,31.10
2018-12-17T06:01:15.777Z,32.10
2018-12-17T06:02:16.492Z,28.80
2018-12-17T06:03:15.419Z,31.10
2018-12-17T06:04:15.818Z,29.10
2018-12-17T06:05:15.782Z,32.10
2018-12-17T06:06:18.198Z,32.20
2018-12-17T06:07:16.997Z,31.10
2018-12-17T06:08:17.856Z,34.20
2018-12-17T06:09:18.202Z,30.60
2018-12-17T06:10:15.296Z,30.00
2018-12-17T06:11:17.682Z,31.00
2018-12-17T06:12:17.483Z,32.70
2018-12-17T06:13:16.745Z,31.10
2018-12-17T06:14:18.077Z,33.90
2018-12-17T06:15:17.576Z,30.80
2018-12-17T06:16:17.189Z,27.60
2018-12-17T06:17:17.293Z,29.40
2018-12-17T06:18:17.758Z,29.20
2018-12-17T06:19:18.250Z,28.40
2018-12-17T06:20:19.076Z,28.10
2018-12-17T06:21:19.316Z,29.70
2018-12-17T06:22:19.801Z,30.10
2018-12-17T06:23:15.826Z,32.30
2018-12-17T06:24:16.020Z,29.10
2018-12-17T06:25:16.224Z,32.50
2018-12-17T06:26:16.427Z,28.80
2018-12-17T06:27:16.623Z,33.10
2018-12-17T06:28:16.954Z,30.70
2018-12-17T06:29:17.028Z,34.60
2018-12-17T06:30:17.111Z,34.10
2018-12-17T06:31:17.300Z,36.30
2018-12-17T06:32:17.518Z,32.20
2018-12-17T06:33:17.723Z,32.20
2018-12-17T06:34:17.932Z,33.80
2018-12-17T06:35:18.141Z,33.80
2018-12-17T06:36:18.323Z,32.30
2018-12-17T06:37:18.570Z,32.70
2018-12-17T06:38:18.638Z,31.40
2018-12-17T06:39:18.902Z,30.90
2018-12-17T06:40:19.033Z,34.50
2018-12-17T06:41:19.127Z,35.30
2018-12-17T06:42:19.287Z,31.20
2018-12-17T06:43:19.415Z,29.80
2018-12-17T06:44:19.536Z,30.20
2018-12-17T06:45:19.605Z,34.30
2018-12-17T06:46:19.806Z,28.10
2018-12-17T06:47:19.995Z,29.40
2018-12-17T06:48:20.241Z,28.90
2018-12-17T06:49:20.337Z,29.70
2018-12-17T06:50:20.429Z,28.30
2018-12-17T06:51:20.653Z,28.00
2018-12-17T06:52:21.586Z,30.80
2018-12-17T06:53:21.190Z,31.10
2018-12-17T06:54:20.981Z,30.10
2018-12-17T06:55:21.185Z,29.90
2018-12-17T06:56:21.465Z,30.50
2018-12-17T06:57:21.728Z,26.50
2018-12-17T06:58:21.730Z,29.40
2018-12-17T06:59:21.951Z,31.90
2018-12-17T07:00:22.044Z,30.10
2018-12-17T07:01:22.172Z,32.00
2018-12-17T07:02:22.407Z,31.10
2018-12-17T07:03:22.597Z,33.10
2018-12-17T07:04:22.707Z,32.70
2018-12-17T07:05:26.528Z,32.00
2018-12-17T07:06:23.047Z,34.10
2018-12-17T07:07:23.149Z,31.90
2018-12-17T07:08:23.315Z,29.80
2018-12-17T07:09:23.373Z,27.50
2018-12-17T07:10:23.525Z,28.50
2018-12-17T07:11:23.617Z,29.70
2018-12-17T07:12:23.735Z,31.70
2018-12-17T07:13:23.846Z,30.70
2018-12-17T07:14:23.938Z,29.80
2018-12-17T07:15:24.116Z,30.00
2018-12-17T07:16:24.352Z,27.30
2018-12-17T07:17:24.512Z,26.60
2018-12-17T07:18:24.713Z,25.90
2018-12-17T07:19:24.757Z,26.60
2018-12-17T07:20:24.974Z,27.90
2018-12-17T07:21:25.186Z,27.80
2018-12-17T07:22:25.609Z,27.70
2018-12-17T07:23:25.666Z,24.20
2018-12-17T07:24:25.653Z,24.20
2018-12-17T07:25:25.906Z,24.80
2018-12-17T07:26:26.124Z,25.90
2018-12-17T07:27:26.271Z,24.40
2018-12-17T07:28:26.732Z,25.10
2018-12-17T07:29:27.913Z,24.10
2018-12-17T07:30:26.506Z,26.60
2018-12-17T07:31:26.655Z,25.50
2018-12-17T07:32:27.044Z,22.90
2018-12-17T07:33:27.000Z,25.10
2018-12-17T07:34:27.150Z,25.50
2018-12-17T07:35:27.253Z,25.70
2018-12-17T07:36:27.445Z,24.80
2018-12-17T07:37:27.650Z,23.70
2018-12-17T07:38:27.781Z,23.70
2018-12-17T07:39:28.034Z,23.70
2018-12-17T07:40:28.130Z,26.30
2018-12-17T07:41:28.347Z,23.60
2018-12-17T07:42:28.333Z,23.80
2018-12-17T07:43:28.453Z,22.20
2018-12-17T07:44:28.746Z,25.60
2018-12-17T07:45:28.847Z,23.50
2018-12-17T07:46:29.000Z,24.00
2018-12-17T07:47:29.092Z,24.00
2018-12-17T07:48:29.465Z,25.60
2018-12-17T07:49:29.437Z,24.10
2018-12-17T07:50:29.672Z,26.70
2018-12-17T07:51:29.763Z,26.10
2018-12-17T07:52:29.878Z,26.60
2018-12-17T07:53:30.049Z,26.30
2018-12-17T07:54:30.649Z,24.40
2018-12-17T07:55:30.273Z,24.50
2018-12-17T07:56:31.835Z,23.30
2018-12-17T07:57:30.658Z,24.90
2018-12-17T07:58:30.735Z,21.40
2018-12-17T07:59:31.457Z,20.80
2018-12-17T08:00:32.257Z,21.90
2018-12-17T08:01:32.344Z,21.40
2018-12-17T08:02:32.259Z,21.80
2018-12-17T08:03:33.053Z,21.90
2018-12-17T08:04:34.441Z,21.70
2018-12-17T08:05:33.027Z,21.40
2018-12-17T08:06:32.635Z,21.50
2018-12-17T08:07:33.440Z,20.90
2018-12-17T08:08:35.486Z,18.90
2018-12-17T08:09:33.706Z,20.80
2018-12-17T08:10:33.719Z,20.90
2018-12-17T08:11:33.443Z,21.10
2018-12-17T08:12:34.230Z,20.30
2018-12-17T08:13:34.242Z,18.70
2018-12-17T08:14:34.071Z,19.70
2018-12-17T08:15:33.938Z,18.40
2018-12-17T08:16:35.387Z,19.20
2018-12-17T08:17:34.929Z,19.60
2018-12-17T08:18:35.681Z,19.80
2018-12-17T08:19:35.726Z,20.70
2018-12-17T08:20:35.037Z,17.90
2018-12-17T08:21:34.466Z,18.90
2018-12-17T08:22:37.093Z,17.90
2018-12-17T08:23:37.085Z,20.50
2018-12-17T08:24:36.346Z,21.50
2018-12-17T08:25:35.922Z,23.30
2018-12-17T08:26:35.050Z,20.00
2018-12-17T08:27:35.087Z,19.90
2018-12-17T08:28:35.364Z,21.40
2018-12-17T08:29:35.423Z,19.50
2018-12-17T08:30:35.675Z,22.30
2018-12-17T08:31:35.739Z,20.40
2018-12-17T08:32:36.170Z,20.70
2018-12-17T08:33:36.602Z,19.40
2018-12-17T08:34:37.801Z,20.60
2018-12-17T08:35:37.531Z,21.70
2018-12-17T08:36:37.128Z,20.60
2018-12-17T08:37:37.808Z,20.30
2018-12-17T08:38:37.837Z,20.00
2018-12-17T08:39:37.660Z,21.00
2018-12-17T08:40:39.260Z,19.90
2018-12-17T08:41:38.377Z,19.00
2018-12-17T08:42:38.295Z,20.70
2018-12-17T08:43:38.404Z,20.40
2018-12-17T08:44:39.196Z,17.50
2018-12-17T08:45:39.119Z,19.00
2018-12-17T08:46:40.263Z,17.70
2018-12-17T08:47:40.223Z,17.10
2018-12-17T08:48:40.348Z,20.60
2018-12-17T08:49:42.319Z,19.70
2018-12-17T08:50:40.478Z,18.50
2018-12-17T08:51:41.023Z,18.60
2018-12-17T08:52:40.078Z,17.40
2018-12-17T08:53:40.480Z,18.00
2018-12-17T08:54:40.448Z,19.90
2018-12-17T08:55:41.187Z,18.20
2018-12-17T08:56:40.840Z,18.80
2018-12-17T08:57:41.015Z,17.70
2018-12-17T08:58:41.030Z,17.70
2018-12-17T08:59:43.355Z,17.60
2018-12-17T09:00:41.968Z,19.70
2018-12-17T09:01:41.833Z,18.10
2018-12-17T09:02:42.925Z,17.70
2018-12-17T09:03:42.431Z,16.70
2018-12-17T09:04:41.334Z,17.90
2018-12-17T09:05:43.174Z,17.20
2018-12-17T09:06:42.393Z,15.90
2018-12-17T09:07:42.416Z,16.70
2018-12-17T09:08:43.809Z,16.00
2018-12-17T09:09:42.551Z,18.20
2018-12-17T09:10:43.362Z,17.00
2018-12-17T09:11:42.880Z,17.80
2018-12-17T09:12:43.756Z,16.30
2018-12-17T09:13:43.683Z,17.30
2018-12-17T09:14:43.655Z,15.90
2018-12-17T09:15:44.126Z,17.90
2018-12-17T09:16:44.969Z,17.10
2018-12-17T09:17:44.403Z,16.80
2018-12-17T09:18:46.866Z,17.40
2018-12-17T09:19:43.999Z,20.10
2018-12-17T09:20:45.396Z,16.50
2018-12-17T09:21:46.381Z,16.20
2018-12-17T09:22:46.269Z,17.90
2018-12-17T09:23:47.135Z,19.10
2018-12-17T09:24:46.135Z,17.40
2018-12-17T09:25:44.358Z,18.60
2018-12-17T09:26:44.225Z,18.10
2018-12-17T09:27:44.391Z,16.30
2018-12-17T09:28:44.591Z,17.40
2018-12-17T09:29:44.769Z,17.30
2018-12-17T09:30:44.919Z,16.90
2018-12-17T09:31:45.076Z,16.20
2018-12-17T09:32:45.278Z,16.80
2018-12-17T09:33:45.411Z,17.40
2018-12-17T09:34:45.620Z,16.00
2018-12-17T09:35:45.802Z,16.80
2018-12-17T09:36:45.971Z,16.80
2018-12-17T09:37:46.138Z,17.20
2018-12-17T09:38:46.327Z,16.40
2018-12-17T09:39:46.522Z,17.80
2018-12-17T09:40:46.650Z,17.40
2018-12-17T09:41:47.142Z,15.10
2018-12-17T09:42:46.950Z,15.10
2018-12-17T09:43:47.412Z,17.30
2018-12-17T09:44:47.224Z,17.20
2018-12-17T09:45:47.647Z,18.60
2018-12-17T09:46:47.806Z,18.10
2018-12-17T09:47:48.676Z,17.50
2018-12-17T09:48:48.263Z,17.40
2018-12-17T09:49:48.583Z,16.20
2018-12-17T09:50:48.735Z,17.90
2018-12-17T09:51:48.617Z,16.70
2018-12-17T09:52:48.658Z,15.80
2018-12-17T09:53:48.969Z,16.00
2018-12-17T09:54:49.002Z,16.50
2018-12-17T09:55:49.295Z,16.10
2018-12-17T09:56:49.268Z,15.30
2018-12-17T09:57:49.508Z,14.90
2018-12-17T09:58:49.542Z,17.20
2018-12-17T09:59:49.693Z,17.00
2018-12-17T10:00:49.872Z,16.30
2018-12-17T10:01:50.028Z,15.20
2018-12-17T10:02:50.177Z,14.70
2018-12-17T10:03:50.343Z,16.40
2018-12-17T10:04:50.496Z,15.90
2018-12-17T10:05:50.702Z,15.80
2018-12-17T10:06:50.890Z,17.20
2018-12-17T10:07:51.054Z,15.90
2018-12-17T10:08:51.221Z,15.00
2018-12-17T10:09:51.387Z,18.60
2018-12-17T10:10:51.690Z,17.20
2018-12-17T10:11:51.735Z,17.60
2018-12-17T10:12:51.897Z,17.90
2018-12-17T10:13:52.066Z,15.30
2018-12-17T10:14:52.230Z,16.00
2018-12-17T10:15:52.410Z,17.30
2018-12-17T10:16:52.561Z,15.70
2018-12-17T10:17:52.742Z,15.20
2018-12-17T10:18:52.916Z,16.50
2018-12-17T10:19:53.074Z,15.30
2018-12-17T10:20:53.227Z,14.60
2018-12-17T10:21:53.513Z,16.60
2018-12-17T10:22:55.488Z,16.50
2018-12-17T10:23:53.710Z,14.90
2018-12-17T10:24:53.895Z,15.40
2018-12-17T10:25:54.090Z,15.00
2018-12-17T10:26:55.814Z,14.90
2018-12-17T10:27:58.119Z,16.90
2018-12-17T10:28:56.184Z,16.80
2018-12-17T10:29:55.128Z,15.50
2018-12-17T10:30:56.580Z,15.70
2018-12-17T10:31:55.002Z,14.60
2018-12-17T10:32:55.176Z,14.10
2018-12-17T10:33:55.813Z,16.20
2018-12-17T10:34:55.614Z,17.40
2018-12-17T10:35:55.649Z,17.10
2018-12-17T10:36:55.841Z,18.10
2018-12-17T10:37:56.006Z,15.80
2018-12-17T10:38:56.199Z,15.40
2018-12-17T10:39:56.363Z,16.20
2018-12-17T10:40:56.534Z,17.20
2018-12-17T10:41:56.773Z,17.50
2018-12-17T10:42:56.872Z,16.60
2018-12-17T10:43:57.031Z,18.50
2018-12-17T10:44:57.205Z,20.40
2018-12-17T10:45:57.391Z,17.20
2018-12-17T10:46:57.556Z,18.80
2018-12-17T10:47:57.719Z,17.90
2018-12-17T10:48:57.879Z,18.40
2018-12-17T10:49:58.089Z,19.70
2018-12-17T10:50:58.249Z,19.80
2018-12-17T10:51:58.423Z,19.10
2018-12-17T10:52:58.585Z,18.70
2018-12-17T10:53:58.821Z,21.50
2018-12-17T10:54:58.906Z,18.90
2018-12-17T10:55:59.082Z,20.20
2018-12-17T10:56:59.254Z,22.00
2018-12-17T10:57:59.477Z,19.60
2018-12-17T10:58:59.532Z,19.20
2018-12-17T10:59:59.808Z,19.60
2018-12-17T11:00:59.896Z,16.00
2018-12-17T11:02:00.052Z,17.40
2018-12-17T11:03:00.221Z,16.50
2018-12-17T11:04:00.366Z,16.70
2018-12-17T11:05:00.552Z,17.40
2018-12-17T11:06:00.694Z,16.60
2018-12-17T11:07:00.900Z,17.10
2018-12-17T11:08:01.072Z,19.50
2018-12-17T11:09:02.323Z,17.40
2018-12-17T11:10:01.563Z,18.20
2018-12-17T11:11:01.833Z,20.20
2018-12-17T11:12:01.650Z,18.40
2018-12-17T11:13:01.824Z,22.20
2018-12-17T11:14:01.997Z,17.50
2018-12-17T11:15:02.171Z,17.60
2018-12-17T11:16:02.321Z,17.50
2018-12-17T11:17:02.500Z,17.40
2018-12-17T11:18:02.662Z,18.20
2018-12-17T11:19:02.826Z,17.70
2018-12-17T11:20:02.992Z,16.50
2018-12-17T11:21:03.149Z,18.20
2018-12-17T11:22:04.450Z,18.90
2018-12-17T11:23:03.751Z,17.20
2018-12-17T11:24:03.684Z,16.00
2018-12-17T11:25:03.837Z,16.20
2018-12-17T11:26:04.012Z,15.10
2018-12-17T11:27:04.187Z,18.10
2018-12-17T11:28:04.384Z,13.10
2018-12-17T11:29:04.547Z,14.40
2018-12-17T11:30:04.711Z,13.10
2018-12-17T11:31:04.880Z,14.10
2018-12-17T11:32:11.452Z,12.80
2018-12-17T11:33:05.244Z,13.20
2018-12-17T11:34:05.407Z,11.50
2018-12-17T11:35:05.586Z,12.40
2018-12-17T11:36:05.751Z,12.40
2018-12-17T11:37:06.090Z,10.20
2018-12-17T11:38:06.146Z,11.40
2018-12-17T11:39:06.480Z,12.30
2018-12-17T11:40:06.444Z,11.70
2018-12-17T11:41:06.641Z,12.00
2018-12-17T11:42:06.818Z,12.10
2018-12-17T11:43:08.908Z,10.90
2018-12-17T11:44:07.132Z,11.10
2018-12-17T11:45:07.327Z,12.80
2018-12-17T11:46:07.475Z,10.90
2018-12-17T11:47:07.662Z,12.10
2018-12-17T11:48:07.822Z,10.40
2018-12-17T11:49:07.995Z,10.50
2018-12-17T11:50:08.399Z,12.70
2018-12-17T11:51:08.339Z,10.60
2018-12-17T11:52:08.526Z,11.70
2018-12-17T11:53:08.616Z,11.50
2018-12-17T11:54:08.784Z,12.80
2018-12-17T11:55:08.981Z,11.70
2018-12-17T11:56:09.119Z,11.20
2018-12-17T11:57:09.284Z,13.10
2018-12-17T11:58:09.472Z,12.10
2018-12-17T11:59:09.647Z,11.50
2018-12-17T12:00:09.817Z,12.40
2018-12-17T12:01:10.306Z,10.90
2018-12-17T12:02:10.288Z,13.60
2018-12-17T12:03:10.452Z,12.20
2018-12-17T12:04:10.422Z,11.60
2018-12-17T12:05:10.604Z,12.70
2018-12-17T12:06:14.152Z,13.30
2018-12-17T12:07:10.934Z,11.20
2018-12-17T12:08:11.098Z,11.70
2018-12-17T12:09:11.264Z,12.50
2018-12-17T12:10:11.431Z,12.60
2018-12-17T12:11:11.596Z,13.20
2018-12-17T12:12:11.772Z,10.50
2018-12-17T12:13:11.919Z,11.20
2018-12-17T12:14:12.090Z,13.30
2018-12-17T12:15:12.248Z,13.20
2018-12-17T12:16:12.411Z,12.60
2018-12-17T12:17:12.579Z,9.90
2018-12-17T12:18:12.748Z,11.60
2018-12-17T12:19:12.928Z,12.40
2018-12-17T12:20:13.290Z,12.70
2018-12-17T12:21:13.265Z,10.30
2018-12-17T12:22:13.430Z,21.00
2018-12-17T12:23:13.591Z,22.80
2018-12-17T12:24:13.802Z,20.10
2018-12-17T12:25:13.974Z,22.40
2018-12-17T12:26:14.139Z,30.00
2018-12-17T12:27:14.306Z,23.70
2018-12-17T12:28:14.469Z,21.80
2018-12-17T12:29:14.623Z,38.10
2018-12-17T12:30:14.796Z,32.60
2018-12-17T12:31:15.010Z,29.90
2018-12-17T12:32:15.172Z,24.60
2018-12-17T12:33:15.430Z,14.60
2018-12-17T12:34:15.645Z,14.90
2018-12-17T12:35:15.819Z,13.30
2018-12-17T12:36:16.244Z,12.10
2018-12-17T12:37:16.730Z,12.80
2018-12-17T12:38:16.390Z,11.80
2018-12-17T12:39:16.377Z,10.90
2018-12-17T12:40:16.555Z,11.10
2018-12-17T12:41:16.776Z,12.40
2018-12-17T12:42:16.860Z,11.70
2018-12-17T12:43:17.025Z,11.90
2018-12-17T12:44:17.227Z,11.70
2018-12-17T12:45:17.521Z,11.20
2018-12-17T12:46:17.563Z,10.70
2018-12-17T12:47:17.758Z,11.30
2018-12-17T12:48:17.919Z,12.00
2018-12-17T12:49:18.476Z,12.70
2018-12-17T12:50:18.609Z,12.30
2018-12-17T12:51:18.480Z,12.40
2018-12-17T12:52:18.907Z,11.30
2018-12-17T12:53:19.280Z,13.00
2018-12-17T12:54:19.122Z,13.10